createdAt,value
2018-11-06T00:00:56.818Z,10.25
2018-11-06T00:03:24.260Z,10.24
2018-11-06T00:05:51.708Z,10.19
2018-11-06T00:08:19.154Z,10.23
2018-11-06T00:10:46.660Z,10.24
2018-11-06T00:13:14.193Z,10.27
2018-11-06T00:15:41.672Z,10.29
2018-11-06T00:18:09.155Z,10.32
2018-11-06T00:20:36.605Z,10.35
2018-11-06T00:23:04.058Z,10.32
2018-11-06T00:25:31.500Z,10.30
2018-11-06T00:27:58.998Z,10.30
2018-11-06T00:30:26.439Z,10.32
2018-11-06T00:32:53.931Z,10.35
2018-11-06T00:35:21.389Z,10.31
2018-11-06T00:37:48.846Z,10.24
2018-11-06T00:40:16.309Z,10.19
2018-11-06T00:42:43.863Z,10.15
2018-11-06T00:45:11.338Z,10.13
2018-11-06T00:47:39.369Z,10.09
2018-11-06T00:50:06.853Z,10.03
2018-11-06T00:52:34.404Z,9.97
2018-11-06T00:55:01.861Z,9.80
2018-11-06T00:57:29.317Z,9.67
2018-11-06T00:59:57.814Z,9.71
2018-11-06T01:02:25.322Z,9.75
2018-11-06T01:04:52.800Z,9.70
2018-11-06T01:07:20.234Z,9.59
2018-11-06T01:09:47.706Z,9.55
2018-11-06T01:12:15.158Z,9.62
2018-11-06T01:14:42.599Z,9.67
2018-11-06T01:17:10.092Z,9.64
2018-11-06T01:19:37.526Z,9.52
2018-11-06T01:22:05.016Z,9.41
2018-11-06T01:24:32.456Z,9.29
2018-11-06T01:26:59.879Z,9.42
2018-11-06T01:29:27.326Z,9.49
2018-11-06T01:31:54.788Z,9.49
2018-11-06T01:34:22.281Z,9.40
2018-11-06T01:36:49.715Z,9.41
2018-11-06T01:39:17.167Z,9.44
2018-11-06T01:41:44.649Z,9.51
2018-11-06T01:44:12.075Z,9.51
2018-11-06T01:46:39.522Z,9.49
2018-11-06T01:49:06.953Z,9.52
2018-11-06T01:51:34.505Z,9.58
2018-11-06T01:54:02.124Z,9.60
2018-11-06T01:56:29.655Z,9.54
2018-11-06T01:58:57.087Z,9.55
2018-11-06T02:01:25.139Z,9.61
2018-11-06T02:03:52.582Z,9.64
2018-11-06T02:06:20.067Z,9.67
2018-11-06T02:08:47.525Z,9.67
2018-11-06T02:11:14.974Z,9.62
2018-11-06T02:13:42.410Z,9.64
2018-11-06T02:16:09.852Z,9.64
2018-11-06T02:18:37.302Z,9.69
2018-11-06T02:21:04.763Z,9.71
2018-11-06T02:23:32.191Z,9.70
2018-11-06T02:25:59.844Z,9.61
2018-11-06T02:28:27.326Z,9.57
2018-11-06T02:30:54.759Z,9.52
2018-11-06T02:33:22.189Z,9.49
2018-11-06T02:35:49.630Z,9.42
2018-11-06T02:38:17.089Z,9.24
2018-11-06T02:40:44.543Z,9.16
2018-11-06T02:43:12.005Z,9.25
2018-11-06T02:45:39.461Z,9.21
2018-11-06T02:48:06.895Z,9.13
2018-11-06T02:50:34.352Z,9.17
2018-11-06T02:53:01.817Z,9.21
2018-11-06T02:55:29.266Z,9.27
2018-11-06T02:57:56.732Z,9.24
2018-11-06T03:00:24.186Z,9.19
2018-11-06T03:02:51.623Z,9.07
2018-11-06T03:05:19.060Z,9.03
2018-11-06T03:07:47.370Z,9.10
2018-11-06T03:10:14.886Z,9.14
2018-11-06T03:12:42.327Z,9.19
2018-11-06T03:15:09.831Z,9.19
2018-11-06T03:17:38.035Z,9.22
2018-11-06T03:20:05.468Z,9.21
2018-11-06T03:22:33.871Z,9.18
2018-11-06T03:25:01.336Z,9.17
2018-11-06T03:27:28.826Z,9.06
2018-11-06T03:29:56.479Z,9.02
2018-11-06T03:32:23.903Z,9.02
2018-11-06T03:34:51.405Z,8.94
2018-11-06T03:37:18.908Z,8.86
2018-11-06T03:39:46.355Z,8.81
2018-11-06T03:42:13.826Z,8.69
2018-11-06T03:44:41.282Z,8.61
2018-11-06T03:47:08.732Z,8.64
2018-11-06T03:49:36.170Z,8.55
2018-11-06T03:52:03.630Z,8.56
2018-11-06T03:54:31.111Z,8.56
2018-11-06T03:56:58.566Z,8.58
2018-11-06T03:59:26.042Z,8.50
2018-11-06T04:01:53.473Z,8.51
2018-11-06T04:04:20.903Z,8.51
2018-11-06T04:06:49.277Z,8.45
2018-11-06T04:09:16.831Z,8.48
2018-11-06T04:11:44.259Z,8.50
2018-11-06T04:14:11.706Z,8.39
2018-11-06T04:16:39.159Z,8.34
2018-11-06T04:19:06.687Z,8.38
2018-11-06T04:21:34.145Z,8.40
2018-11-06T04:24:01.721Z,8.41
2018-11-06T04:26:29.176Z,8.46
2018-11-06T04:28:56.645Z,8.48
2018-11-06T04:31:24.098Z,8.46
2018-11-06T04:33:51.598Z,8.39
2018-11-06T04:36:19.035Z,8.42
2018-11-06T04:38:46.489Z,8.42
2018-11-06T04:41:13.925Z,8.31
2018-11-06T04:43:41.359Z,8.34
2018-11-06T04:46:09.028Z,8.35
2018-11-06T04:48:36.570Z,8.38
2018-11-06T04:51:04.050Z,8.32
2018-11-06T04:53:31.485Z,8.28
2018-11-06T04:55:59.024Z,8.26
2018-11-06T04:58:26.460Z,8.12
2018-11-06T05:00:53.909Z,8.11
2018-11-06T05:03:21.388Z,8.21
2018-11-06T05:05:48.842Z,8.24
2018-11-06T05:08:16.271Z,8.28
2018-11-06T05:10:43.731Z,8.30
2018-11-06T05:13:11.202Z,8.10
2018-11-06T05:15:38.639Z,8.10
2018-11-06T05:18:06.071Z,8.14
2018-11-06T05:20:33.530Z,8.06
2018-11-06T05:23:00.958Z,8.13
2018-11-06T05:25:28.451Z,8.05
2018-11-06T05:27:55.898Z,7.96
2018-11-06T05:30:23.328Z,7.92
2018-11-06T05:32:50.892Z,7.97
2018-11-06T05:35:18.309Z,7.96
2018-11-06T05:37:45.765Z,7.89
2018-11-06T05:43:19.383Z,8.13
2018-11-06T05:45:46.845Z,7.92
2018-11-06T05:48:14.291Z,7.99
2018-11-06T05:50:41.786Z,7.92
2018-11-06T05:53:10.144Z,7.79
2018-11-06T05:55:37.672Z,7.87
2018-11-06T05:58:05.165Z,7.98
2018-11-06T06:00:32.677Z,7.98
2018-11-06T06:03:00.121Z,8.05
2018-11-06T06:05:27.674Z,8.13
2018-11-06T06:07:55.120Z,8.18
2018-11-06T06:10:22.560Z,8.23
2018-11-06T06:12:50.003Z,8.21
2018-11-06T06:15:17.452Z,8.19
2018-11-06T06:17:44.965Z,8.16
2018-11-06T06:20:12.980Z,8.08
2018-11-06T06:22:42.303Z,8.14
2018-11-06T06:25:10.538Z,8.19
2018-11-06T06:27:38.073Z,8.21
2018-11-06T06:30:05.511Z,8.29
2018-11-06T06:32:32.954Z,8.34
2018-11-06T06:35:01.207Z,8.40
2018-11-06T06:37:28.606Z,8.40
2018-11-06T06:39:56.226Z,8.44
2018-11-06T06:42:23.877Z,8.53
2018-11-06T06:44:51.428Z,8.59
2018-11-06T06:47:18.860Z,8.51
2018-11-06T06:49:46.293Z,8.47
2018-11-06T06:52:13.768Z,8.50
2018-11-06T06:54:41.303Z,8.53
2018-11-06T06:57:08.658Z,8.64
2018-11-06T06:59:36.141Z,8.70
2018-11-06T07:02:03.598Z,8.67
2018-11-06T07:04:31.042Z,8.83
2018-11-06T07:06:58.499Z,8.84
2018-11-06T07:09:25.982Z,8.88
2018-11-06T07:11:53.431Z,9.11
2018-11-06T07:14:21.023Z,9.36
2018-11-06T07:16:48.469Z,9.49
2018-11-06T07:19:16.005Z,9.51
2018-11-06T07:21:43.544Z,9.54
2018-11-06T07:24:10.974Z,9.73
2018-11-06T07:26:38.424Z,9.87
2018-11-06T07:29:05.852Z,9.95
2018-11-06T07:31:33.303Z,9.91
2018-11-06T07:34:00.744Z,9.90
2018-11-06T07:36:28.224Z,9.81
2018-11-06T07:38:55.705Z,9.55
2018-11-06T07:41:23.481Z,9.81
2018-11-06T07:43:51.004Z,10.00
2018-11-06T07:46:18.463Z,10.05
2018-11-06T07:48:46.097Z,10.31
2018-11-06T07:51:14.265Z,10.66
2018-11-06T07:53:41.778Z,10.80
2018-11-06T07:56:09.312Z,10.85
2018-11-06T07:58:36.795Z,10.93
2018-11-06T08:01:04.318Z,11.11
2018-11-06T08:03:31.758Z,11.32
2018-11-06T08:05:59.338Z,11.93
2018-11-06T08:08:26.812Z,11.81
2018-11-06T08:10:54.259Z,11.98
2018-11-06T08:13:21.817Z,12.77
2018-11-06T08:15:49.263Z,13.10
2018-11-06T08:18:16.741Z,13.83
2018-11-06T08:20:44.359Z,15.00
2018-11-06T08:23:11.755Z,15.78
2018-11-06T08:25:39.192Z,16.30
2018-11-06T08:28:07.001Z,16.57
2018-11-06T08:30:34.526Z,16.26
2018-11-06T08:33:02.252Z,16.41
2018-11-06T08:35:29.723Z,16.37
2018-11-06T08:37:57.250Z,16.16
2018-11-06T08:40:24.717Z,16.31
2018-11-06T08:42:52.183Z,16.10
2018-11-06T08:45:19.774Z,16.31
2018-11-06T08:47:47.852Z,15.87
2018-11-06T08:50:15.339Z,15.14
2018-11-06T08:52:42.808Z,14.00
2018-11-06T08:55:10.278Z,14.04
2018-11-06T08:57:38.079Z,13.54
2018-11-06T09:00:06.112Z,13.04
2018-11-06T09:02:33.638Z,13.02
2018-11-06T09:05:01.171Z,13.35
2018-11-06T09:07:28.628Z,13.55
2018-11-06T09:09:56.072Z,13.68
2018-11-06T09:12:23.537Z,14.32
2018-11-06T09:14:51.098Z,15.13
2018-11-06T09:17:18.553Z,15.91
2018-11-06T09:19:46.173Z,16.65
2018-11-06T09:22:13.637Z,17.08
2018-11-06T09:24:41.096Z,16.84
2018-11-06T09:27:08.672Z,17.31
2018-11-06T09:29:36.127Z,17.77
2018-11-06T09:32:03.571Z,17.95
2018-11-06T09:34:31.031Z,17.49
2018-11-06T09:36:58.480Z,17.79
2018-11-06T09:39:25.956Z,18.10
2018-11-06T09:41:53.489Z,18.02
2018-11-06T09:44:20.935Z,17.91
2018-11-06T09:46:48.408Z,18.44
2018-11-06T09:49:15.885Z,18.46
2018-11-06T09:51:43.359Z,18.28
2018-11-06T09:54:11.011Z,17.87
2018-11-06T09:56:40.369Z,17.53
2018-11-06T09:59:07.827Z,17.08
2018-11-06T10:01:35.296Z,16.72
2018-11-06T10:04:02.788Z,16.83
2018-11-06T10:06:30.965Z,17.13
2018-11-06T10:08:58.385Z,17.28
2018-11-06T10:11:25.904Z,17.34
2018-11-06T10:13:53.309Z,17.17
2018-11-06T10:16:20.803Z,16.79
2018-11-06T10:18:48.239Z,16.49
2018-11-06T10:21:15.724Z,16.24
2018-11-06T10:23:43.239Z,16.12
2018-11-06T10:26:10.679Z,16.24
2018-11-06T10:28:38.179Z,16.48
2018-11-06T10:31:05.618Z,16.61
2018-11-06T10:33:33.068Z,16.48
2018-11-06T10:36:00.519Z,16.58
2018-11-06T10:38:28.004Z,16.52
2018-11-06T10:40:55.547Z,16.69
2018-11-06T10:43:24.208Z,16.66
2018-11-06T10:45:51.884Z,16.60
2018-11-06T10:48:19.313Z,16.57
2018-11-06T10:50:46.860Z,16.64
2018-11-06T10:53:14.310Z,16.90
2018-11-06T10:55:41.782Z,16.92
2018-11-06T10:58:09.448Z,17.09
2018-11-06T11:00:37.435Z,17.10
2018-11-06T11:03:04.871Z,17.11
2018-11-06T11:05:32.420Z,17.40
2018-11-06T11:08:00.170Z,17.54
2018-11-06T11:10:27.840Z,17.85
2018-11-06T11:12:55.245Z,17.92
2018-11-06T11:15:22.731Z,18.14
2018-11-06T11:17:50.842Z,18.78
2018-11-06T11:20:18.378Z,18.80
2018-11-06T11:22:45.859Z,18.49
2018-11-06T11:25:13.407Z,18.58
2018-11-06T11:27:40.954Z,19.46
2018-11-06T11:30:08.417Z,19.36
2018-11-06T11:32:36.005Z,18.14
2018-11-06T11:35:03.501Z,17.11
2018-11-06T11:37:31.065Z,16.70
2018-11-06T11:39:58.624Z,16.47
2018-11-06T11:42:26.180Z,16.26
2018-11-06T11:44:53.710Z,16.15
2018-11-06T11:47:21.265Z,16.06
2018-11-06T11:49:48.806Z,15.92
2018-11-06T11:52:16.661Z,15.88
2018-11-06T11:54:44.104Z,15.69
2018-11-06T11:57:11.599Z,15.57
2018-11-06T11:59:39.150Z,15.44
2018-11-06T12:02:06.667Z,15.39
2018-11-06T12:04:34.156Z,15.23
2018-11-06T12:07:01.604Z,15.16
2018-11-06T12:09:29.066Z,15.14
2018-11-06T12:11:56.543Z,15.06
2018-11-06T12:14:23.982Z,14.98
2018-11-06T12:16:51.916Z,14.87
2018-11-06T12:19:19.432Z,14.74
2018-11-06T12:21:48.080Z,14.64
2018-11-06T12:24:15.748Z,14.62
2018-11-06T12:26:43.159Z,14.66
2018-11-06T12:29:10.637Z,14.66
2018-11-06T12:31:38.140Z,14.66
2018-11-06T12:34:05.601Z,14.69
2018-11-06T12:36:33.061Z,14.66
2018-11-06T12:39:01.281Z,14.74
2018-11-06T12:41:28.699Z,14.74
2018-11-06T12:43:56.289Z,14.68
2018-11-06T12:46:23.819Z,14.65
2018-11-06T12:48:51.258Z,14.54
2018-11-06T12:51:18.901Z,14.40
2018-11-06T12:53:46.539Z,14.34
2018-11-06T12:56:14.041Z,14.35
2018-11-06T12:58:41.450Z,14.33
2018-11-06T13:01:09.075Z,14.31
2018-11-06T13:03:36.743Z,14.32
2018-11-06T13:06:05.152Z,14.32
2018-11-06T13:08:33.130Z,14.22
2018-11-06T13:11:00.589Z,14.14
2018-11-06T13:13:28.045Z,14.09
2018-11-06T13:15:55.584Z,13.96
2018-11-06T13:18:23.046Z,13.93
2018-11-06T13:20:51.092Z,13.81
2018-11-06T13:23:18.554Z,13.69
2018-11-06T13:25:46.223Z,13.66
2018-11-06T13:28:13.581Z,13.51
2018-11-06T13:30:41.067Z,13.50
2018-11-06T13:33:08.529Z,13.41
2018-11-06T13:35:35.984Z,13.26
2018-11-06T13:38:03.445Z,13.18
2018-11-06T13:40:30.921Z,13.14
2018-11-06T13:42:58.548Z,13.08
2018-11-06T13:45:26.015Z,13.00
2018-11-06T13:47:53.344Z,12.95
2018-11-06T13:50:20.900Z,12.89
2018-11-06T13:52:50.016Z,12.87
2018-11-06T13:55:17.542Z,12.83
2018-11-06T13:57:45.039Z,12.79
2018-11-06T14:00:12.697Z,12.75
2018-11-06T14:02:40.162Z,12.67
2018-11-06T14:05:07.668Z,12.64
2018-11-06T14:07:35.137Z,12.55
2018-11-06T14:10:03.140Z,12.44
2018-11-06T14:12:30.599Z,12.39
2018-11-06T14:14:58.668Z,12.34
2018-11-06T14:17:26.185Z,12.31
2018-11-06T14:19:53.633Z,12.28
2018-11-06T14:22:21.061Z,12.30
2018-11-06T14:24:48.508Z,12.24
2018-11-06T14:27:15.978Z,12.23
2018-11-06T14:29:43.485Z,12.24
2018-11-06T14:32:11.007Z,12.27
2018-11-06T14:34:39.488Z,12.36
2018-11-06T14:37:06.926Z,12.41
2018-11-06T14:39:34.368Z,12.48
2018-11-06T14:42:01.979Z,12.50
2018-11-06T14:44:29.379Z,12.50
2018-11-06T14:46:56.890Z,12.48
2018-11-06T14:49:24.367Z,12.43
2018-11-06T14:51:51.849Z,12.51
2018-11-06T14:54:19.489Z,12.50
2018-11-06T14:56:47.741Z,12.52
2018-11-06T14:59:15.254Z,12.55
2018-11-06T15:01:42.816Z,12.48
2018-11-06T15:04:10.467Z,12.48
2018-11-06T15:06:37.932Z,12.61
2018-11-06T15:09:05.445Z,12.54
2018-11-06T15:11:33.167Z,12.51
2018-11-06T15:14:00.607Z,12.44
2018-11-06T15:16:28.066Z,12.45
2018-11-06T15:18:55.590Z,12.45
2018-11-06T15:21:23.391Z,12.36
2018-11-06T15:23:50.827Z,12.36
2018-11-06T15:26:18.337Z,12.41
2018-11-06T15:28:45.904Z,12.35
2018-11-06T15:31:13.374Z,12.25
2018-11-06T15:33:40.835Z,12.34
2018-11-06T15:36:08.273Z,12.33
2018-11-06T15:38:35.720Z,12.30
2018-11-06T15:41:03.330Z,12.35
2018-11-06T15:43:30.700Z,12.38
2018-11-06T15:45:58.332Z,12.42
2018-11-06T15:48:25.795Z,12.41
2018-11-06T15:50:53.240Z,12.31
2018-11-06T15:53:20.694Z,12.25
2018-11-06T15:55:48.122Z,12.24
2018-11-06T15:58:16.225Z,12.30
2018-11-06T16:00:43.737Z,12.36
2018-11-06T16:03:11.252Z,12.38
2018-11-06T16:05:38.691Z,12.41
2018-11-06T16:08:06.232Z,12.46
2018-11-06T16:10:33.735Z,12.45
2018-11-06T16:13:01.368Z,12.39
2018-11-06T16:15:28.952Z,12.35
2018-11-06T16:17:56.318Z,12.32
2018-11-06T16:20:23.808Z,12.31
2018-11-06T16:22:51.243Z,12.30
2018-11-06T16:25:18.731Z,12.24
2018-11-06T16:27:46.334Z,12.27
2018-11-06T16:30:13.807Z,12.30
2018-11-06T16:32:41.276Z,12.29
2018-11-06T16:35:08.733Z,12.24
2018-11-06T16:37:36.179Z,12.24
2018-11-06T16:40:03.621Z,12.20
2018-11-06T16:42:31.060Z,12.01
2018-11-06T16:44:58.726Z,12.02
2018-11-06T16:47:26.212Z,12.08
2018-11-06T16:49:53.664Z,12.10
2018-11-06T16:52:21.245Z,12.07
2018-11-06T16:54:48.687Z,12.07
2018-11-06T16:57:16.204Z,12.01
2018-11-06T16:59:43.943Z,11.95
2018-11-06T17:02:11.331Z,11.92
2018-11-06T17:04:39.010Z,11.90
2018-11-06T17:07:06.505Z,11.84
2018-11-06T17:09:34.119Z,11.83
2018-11-06T17:12:01.579Z,11.84
2018-11-06T17:14:29.009Z,11.84
2018-11-06T17:16:56.469Z,11.89
2018-11-06T17:19:23.911Z,11.92
2018-11-06T17:21:51.482Z,11.90
2018-11-06T17:24:18.976Z,11.89
2018-11-06T17:26:47.448Z,11.84
2018-11-06T17:29:14.913Z,11.83
2018-11-06T17:31:42.809Z,11.83
2018-11-06T17:34:11.268Z,11.87
2018-11-06T17:36:38.730Z,11.95
2018-11-06T17:39:06.237Z,12.02
2018-11-06T17:41:33.691Z,11.94
2018-11-06T17:44:01.276Z,11.82
2018-11-06T17:46:28.745Z,11.82
2018-11-06T17:48:56.166Z,11.86
2018-11-06T17:51:23.611Z,11.90
2018-11-06T17:53:51.047Z,11.97
2018-11-06T17:56:18.492Z,12.01
2018-11-06T17:58:46.046Z,11.94
2018-11-06T18:01:13.475Z,11.91
2018-11-06T18:03:40.911Z,11.90
2018-11-06T18:06:08.354Z,11.91
2018-11-06T18:08:35.846Z,11.92
2018-11-06T18:11:03.288Z,11.95
2018-11-06T18:13:30.720Z,11.97
2018-11-06T18:15:58.183Z,11.96
2018-11-06T18:18:25.650Z,11.89
2018-11-06T18:20:53.162Z,11.85
2018-11-06T18:23:20.635Z,11.80
2018-11-06T18:25:48.383Z,11.84
2018-11-06T18:28:15.811Z,11.85
2018-11-06T18:30:43.374Z,11.83
2018-11-06T18:33:10.855Z,11.79
2018-11-06T18:35:38.662Z,11.77
2018-11-06T18:38:06.102Z,11.69
2018-11-06T18:40:33.548Z,11.77
2018-11-06T18:43:00.994Z,11.83
2018-11-06T18:45:28.462Z,11.82
2018-11-06T18:47:55.924Z,11.84
2018-11-06T18:50:23.360Z,11.84
2018-11-06T18:52:50.792Z,11.88
2018-11-06T18:55:18.235Z,11.92
2018-11-06T18:57:45.685Z,11.98
2018-11-06T19:00:13.291Z,12.01
2018-11-06T19:02:41.083Z,12.03
2018-11-06T19:05:08.853Z,12.02
2018-11-06T19:07:37.300Z,12.00
2018-11-06T19:10:05.079Z,12.00
2018-11-06T19:12:33.788Z,11.98
2018-11-06T19:15:01.234Z,11.90
2018-11-06T19:17:28.689Z,11.88
2018-11-06T19:19:56.961Z,11.88
2018-11-06T19:22:24.416Z,11.93
2018-11-06T19:24:51.867Z,11.98
2018-11-06T19:27:19.324Z,12.00
2018-11-06T19:29:46.809Z,12.01
2018-11-06T19:32:14.973Z,12.04
2018-11-06T19:34:42.419Z,12.05
2018-11-06T19:37:09.898Z,12.04
2018-11-06T19:39:37.325Z,11.99
2018-11-06T19:42:04.840Z,11.99
2018-11-06T19:44:32.281Z,12.01
2018-11-06T19:46:59.707Z,12.03
2018-11-06T19:49:27.140Z,12.03
2018-11-06T19:51:55.568Z,12.02
2018-11-06T19:54:23.044Z,12.02
2018-11-06T19:56:50.544Z,12.02
2018-11-06T19:59:18.002Z,12.02
2018-11-06T20:01:45.426Z,12.10
2018-11-06T20:04:12.939Z,12.11
2018-11-06T20:06:40.490Z,12.06
2018-11-06T20:09:08.001Z,12.00
2018-11-06T20:11:35.535Z,11.87
2018-11-06T20:14:03.020Z,11.81
2018-11-06T20:16:30.490Z,11.93
2018-11-06T20:18:57.964Z,11.80
2018-11-06T20:21:26.232Z,11.80
2018-11-06T20:23:53.619Z,11.86
2018-11-06T20:26:21.096Z,11.67
2018-11-06T20:28:48.584Z,11.66
2018-11-06T20:31:16.653Z,11.75
2018-11-06T20:33:44.419Z,11.76
2018-11-06T20:36:11.674Z,11.71
2018-11-06T20:38:39.203Z,11.67
2018-11-06T20:41:06.654Z,11.68
2018-11-06T20:43:34.082Z,11.67
2018-11-06T20:46:01.597Z,11.64
2018-11-06T20:48:29.037Z,11.64
2018-11-06T20:50:56.499Z,11.66
2018-11-06T20:53:24.006Z,11.70
2018-11-06T20:55:51.656Z,11.77
2018-11-06T20:58:19.113Z,11.82
2018-11-06T21:00:46.549Z,11.80
2018-11-06T21:03:13.996Z,11.76
2018-11-06T21:05:41.479Z,11.79
2018-11-06T21:08:08.936Z,11.78
2018-11-06T21:10:36.602Z,11.72
2018-11-06T21:13:04.064Z,11.65
2018-11-06T21:15:31.510Z,11.70
2018-11-06T21:17:59.164Z,11.73
2018-11-06T21:20:26.549Z,11.73
2018-11-06T21:22:54.062Z,11.71
2018-11-06T21:25:21.622Z,11.71
2018-11-06T21:27:49.013Z,11.71
2018-11-06T21:30:16.454Z,11.64
2018-11-06T21:32:44.425Z,11.50
2018-11-06T21:35:11.879Z,11.41
2018-11-06T21:37:39.414Z,11.33
2018-11-06T21:40:06.847Z,11.31
2018-11-06T21:42:34.309Z,11.26
2018-11-06T21:45:01.800Z,11.24
2018-11-06T21:47:29.272Z,11.23
2018-11-06T21:49:56.921Z,11.20
2018-11-06T21:52:24.414Z,11.21
2018-11-06T21:54:51.891Z,11.23
2018-11-06T21:57:19.413Z,11.23
2018-11-06T21:59:46.850Z,11.28
2018-11-06T22:02:14.327Z,11.28
2018-11-06T22:04:42.601Z,11.30
2018-11-06T22:07:10.060Z,11.30
2018-11-06T22:09:37.585Z,11.25
2018-11-06T22:12:05.081Z,11.23
2018-11-06T22:14:32.513Z,11.21
2018-11-06T22:17:00.042Z,11.18
2018-11-06T22:19:27.515Z,11.20
2018-11-06T22:21:54.985Z,11.21
2018-11-06T22:24:22.433Z,11.21
2018-11-06T22:26:50.028Z,11.23
2018-11-06T22:29:17.566Z,11.14
2018-11-06T22:31:45.201Z,11.11
2018-11-06T22:34:12.569Z,11.11
2018-11-06T22:36:40.107Z,11.11
2018-11-06T22:39:07.541Z,11.08
2018-11-06T22:41:35.043Z,11.02
2018-11-06T22:44:02.491Z,10.92
2018-11-06T22:46:29.935Z,10.82
2018-11-06T22:48:57.391Z,10.81
2018-11-06T22:51:24.907Z,10.80
2018-11-06T22:53:52.986Z,10.82
2018-11-06T22:56:20.402Z,10.79
2018-11-06T22:58:48.478Z,10.72
2018-11-06T23:01:15.886Z,10.55
2018-11-06T23:03:43.335Z,10.49
2018-11-06T23:06:11.001Z,10.49
2018-11-06T23:08:38.154Z,10.52
2018-11-06T23:11:05.592Z,10.44
2018-11-06T23:13:33.004Z,10.40
2018-11-06T23:16:00.447Z,10.41
2018-11-06T23:18:27.876Z,10.35
2018-11-06T23:20:55.305Z,10.22
2018-11-06T23:23:22.709Z,10.19
2018-11-06T23:25:50.151Z,10.12
2018-11-06T23:28:17.580Z,10.08
2018-11-06T23:30:45.020Z,10.00
2018-11-06T23:33:12.561Z,9.88
2018-11-06T23:35:40.197Z,9.87
2018-11-06T23:38:07.628Z,9.72
2018-11-06T23:40:35.324Z,9.67
2018-11-06T23:43:03.041Z,9.65
2018-11-06T23:45:30.709Z,9.61
2018-11-06T23:47:58.120Z,9.67
2018-11-06T23:50:25.616Z,9.77
2018-11-06T23:52:53.086Z,9.84
2018-11-06T23:55:20.536Z,9.88
2018-11-06T23:57:47.971Z,9.85
